Time;durP1;ratioP1;P1;durP2;ratioP2;P2;SDS_P1;SDS_P2;PMS_P1;PMS_P2;Temp;Humidity;BMP_temperature;BMP_pressure;BME280_temperature;BME280_humidity;BME280_pressure;Samples;Min_cycle;Max_cycle;Signal;HPM_P1;HPM_P2
2022/06/28 00:02:06;;;;;;;1.40;1.30;;;;;;;18.86;73.46;99295.53;5117114;27;41090;-79
2022/06/28 00:04:34;;;;;;;1.60;1.50;;;;;;;18.82;73.53;99320.94;5117334;27;41275;-78
2022/06/28 00:07:03;;;;;;;1.80;1.70;;;;;;;18.82;73.60;99317.41;5117273;27;41839;-79
2022/06/28 00:09:31;;;;;;;2.00;1.80;;;;;;;18.79;72.91;99329.25;5099685;27;43166;-79
2022/06/28 00:11:59;;;;;;;1.67;1.57;;;;;;;18.77;73.06;99331.25;5117434;27;42266;-79
2022/06/28 00:17:12;;;;;;;1.80;1.70;;;;;;;18.71;73.11;99341.66;5117217;27;41754;-79
2022/06/28 00:19:39;;;;;;;1.47;1.37;;;;;;;18.67;73.00;99335.72;5099729;27;41786;-79
2022/06/28 00:22:08;;;;;;;1.43;1.33;;;;;;;18.63;72.63;99332.47;5099778;27;42182;-79
2022/06/28 00:24:36;;;;;;;1.63;1.30;;;;;;;18.58;72.65;99332.00;5116769;27;39165;-78
2022/06/28 00:27:04;;;;;;;1.60;1.50;;;;;;;18.56;72.61;99331.25;5099460;27;40659;-79
2022/06/28 00:29:33;;;;;;;1.83;1.73;;;;;;;18.54;73.35;99329.72;5099368;27;44259;-79
2022/06/28 00:32:00;;;;;;;1.80;1.40;;;;;;;18.38;73.62;99308.75;5117161;27;42292;-79
2022/06/28 00:34:28;;;;;;;1.93;1.83;;;;;;;18.47;73.03;99333.91;5099968;27;38950;-78
2022/06/28 00:36:56;;;;;;;1.50;1.40;;;;;;;18.36;72.87;99331.31;5135084;27;41524;-79
2022/06/28 00:39:25;;;;;;;1.57;1.13;;;;;;;18.35;73.12;99334.97;5099568;27;42578;-79
2022/06/28 00:41:53;;;;;;;1.40;1.30;;;;;;;18.41;72.82;99355.91;5134644;27;43265;-79
2022/06/28 00:44:22;;;;;;;2.67;1.90;;;;;;;18.39;73.02;99353.34;5117084;27;40200;-79
2022/06/28 00:46:49;;;;;;;1.90;1.33;;;;;;;18.35;73.08;99357.28;5099497;27;42091;-79
2022/06/28 00:49:17;;;;;;;2.10;2.00;;;;;;;18.32;73.02;99362.91;5099399;27;42026;-79
2022/06/28 00:51:45;;;;;;;1.20;1.10;;;;;;;18.31;73.14;99351.31;5116497;27;43258;-79
2022/06/28 00:54:14;;;;;;;1.70;1.60;;;;;;;18.29;73.73;99352.47;5135015;27;40858;-79
2022/06/28 00:56:43;;;;;;;1.40;1.30;;;;;;;18.26;73.20;99342.84;5116186;27;40758;-79
2022/06/28 00:59:10;;;;;;;1.10;1.00;;;;;;;18.23;73.18;99348.47;5099567;27;42858;-79
2022/06/28 01:01:38;;;;;;;2.07;1.40;;;;;;;18.18;73.07;99361.41;5099105;27;41048;-79
2022/06/28 01:04:06;;;;;;;1.30;1.20;;;;;;;18.13;72.85;99369.00;5099735;27;38917;-79
2022/06/28 01:06:34;;;;;;;1.37;1.27;;;;;;;18.07;72.79;99368.66;5116139;27;41946;-79
2022/06/28 01:09:02;;;;;;;1.40;1.30;;;;;;;18.00;72.33;99368.34;5099414;27;41675;-79
2022/06/28 01:11:32;;;;;;;1.07;1.03;;;;;;;17.93;72.26;99375.19;5098751;27;41104;-79
2022/06/28 01:14:05;;;;;;;1.40;1.30;;;;;;;17.88;72.44;99372.91;5116403;27;39888;-79
2022/06/28 01:16:51;;;;;;;1.43;1.33;;;;;;;17.79;72.50;99364.81;5131173;27;42448;-79
2022/06/28 01:19:22;;;;;;;1.20;1.10;;;;;;;17.72;72.29;99363.59;5099371;27;41499;-79
2022/06/28 01:21:57;;;;;;;1.23;1.13;;;;;;;17.63;72.44;99359.88;5113108;27;42332;-79
2022/06/28 01:24:30;;;;;;;1.10;1.00;;;;;;;17.64;72.37;99363.41;5113311;27;40617;-79
2022/06/28 01:27:05;;;;;;;1.60;1.50;;;;;;;17.57;72.84;99361.19;5099478;27;41852;-79
2022/06/28 01:29:33;;;;;;;1.50;1.40;;;;;;;17.51;72.58;99358.19;5115788;27;41883;-79
2022/06/28 01:32:21;;;;;;;1.50;1.07;;;;;;;17.45;73.03;99367.56;5113026;27;43202;-79
2022/06/28 01:34:49;;;;;;;1.70;1.60;;;;;;;17.29;73.09;99343.06;5098789;27;38801;-79
2022/06/28 01:37:20;;;;;;;1.63;1.43;;;;;;;17.36;73.39;99357.63;5098788;27;41752;-80
2022/06/28 01:39:50;;;;;;;1.40;1.30;;;;;;;17.31;74.13;99348.28;5098762;27;42018;-79
2022/06/28 01:42:18;;;;;;;2.70;1.70;;;;;;;17.28;74.57;99354.75;5098215;27;41578;-79
2022/06/28 01:44:46;;;;;;;1.43;1.33;;;;;;;17.24;74.32;99359.50;5115608;27;41752;-79
2022/06/28 01:47:26;;;;;;;1.13;1.03;;;;;;;17.18;74.26;99356.47;5098558;27;40972;-79
2022/06/28 01:50:14;;;;;;;1.40;1.30;;;;;;;17.13;74.35;99358.66;5130630;27;42761;-79
2022/06/28 01:52:45;;;;;;;1.40;1.30;;;;;;;17.08;74.28;99364.38;5098445;27;40954;-79
2022/06/28 01:55:34;;;;;;;2.70;1.10;;;;;;;17.03;74.16;99381.78;5114511;27;40583;-79
2022/06/28 01:58:05;;;;;;;1.93;1.37;;;;;;;16.98;74.04;99384.84;5098355;27;40794;-79
2022/06/28 02:00:37;;;;;;;1.43;1.23;;;;;;;16.86;74.12;99370.63;5114145;27;42706;-79
2022/06/28 02:03:06;;;;;;;1.17;1.07;;;;;;;16.88;74.24;99390.06;5098927;27;41048;-79
2022/06/28 02:05:52;;;;;;;0.90;0.90;;;;;;;16.83;73.89;99397.59;5132757;27;40957;-79
2022/06/28 02:08:20;;;;;;;1.77;1.23;;;;;;;16.80;74.20;99397.03;5115445;27;42962;-79
2022/06/28 02:11:04;;;;;;;1.30;1.23;;;;;;;16.76;74.72;99407.09;5114403;27;43788;-79
2022/06/28 02:13:42;;;;;;;1.33;1.23;;;;;;;16.72;74.51;99402.97;5098364;27;43614;-81
2022/06/28 02:16:11;;;;;;;1.27;1.17;;;;;;;16.70;74.78;99412.91;5114966;27;39982;-79
2022/06/28 02:18:38;;;;;;;1.30;1.20;;;;;;;16.66;74.55;99406.13;5115095;27;41749;-79
2022/06/28 02:21:08;;;;;;;1.27;1.17;;;;;;;16.61;74.73;99397.56;5115128;27;42820;-79
2022/06/28 02:23:36;;;;;;;1.00;1.00;;;;;;;16.57;74.25;99400.63;5098084;27;41970;-79
2022/06/28 02:26:05;;;;;;;1.10;1.10;;;;;;;16.52;74.22;99409.00;5115395;27;39979;-79
2022/06/28 02:28:32;;;;;;;1.03;1.03;;;;;;;16.46;73.97;99412.13;5115298;27;41744;-78
2022/06/28 02:31:00;;;;;;;1.00;1.00;;;;;;;16.43;74.12;99409.72;5097864;27;44379;-79
2022/06/28 02:33:28;;;;;;;2.40;1.30;;;;;;;16.39;73.72;99418.94;5114676;27;42657;-79
2022/06/28 02:41:27;;;;;;;0.87;0.80;;;;;;;16.24;73.81;99420.13;5114039;27;42828;-79
2022/06/28 02:43:55;;;;;;;1.13;1.03;;;;;;;16.19;73.74;99428.50;5097981;27;41215;-79
2022/06/28 02:46:22;;;;;;;1.20;1.10;;;;;;;16.15;73.91;99433.22;5097841;27;41377;-79
2022/06/28 02:48:50;;;;;;;1.27;1.17;;;;;;;16.11;73.75;99415.72;5115384;27;42089;-79
2022/06/28 02:51:20;;;;;;;2.03;1.40;;;;;;;16.06;73.47;99423.25;5114982;27;43705;-78
2022/06/28 02:53:48;;;;;;;0.87;0.87;;;;;;;15.96;73.80;99416.88;5114950;27;43561;-79
2022/06/28 02:56:16;;;;;;;1.17;1.07;;;;;;;15.90;73.82;99412.00;5114816;27;39785;-79
2022/06/28 02:58:45;;;;;;;1.57;1.40;;;;;;;15.89;73.89;99414.78;5097628;27;41788;-79
2022/06/28 03:01:13;;;;;;;0.90;0.90;;;;;;;15.83;73.56;99416.09;5097286;27;43594;-79
2022/06/28 03:03:41;;;;;;;0.90;0.90;;;;;;;15.88;73.73;99429.97;5114648;27;42026;-79
2022/06/28 03:06:10;;;;;;;0.80;0.80;;;;;;;15.85;73.89;99434.66;5097526;27;40528;-79
2022/06/28 03:08:38;;;;;;;1.93;1.10;;;;;;;15.71;73.58;99417.00;5097691;27;41100;-79
2022/06/28 03:11:06;;;;;;;1.10;1.00;;;;;;;15.78;73.70;99428.94;5097233;27;43606;-79
2022/06/28 03:13:34;;;;;;;1.33;1.23;;;;;;;15.75;74.10;99434.50;5097678;27;41193;-79
2022/06/28 03:16:05;;;;;;;1.30;1.20;;;;;;;15.71;73.74;99441.91;5097307;27;40443;-79
2022/06/28 03:18:32;;;;;;;1.07;0.97;;;;;;;15.68;74.07;99438.63;5114697;27;41731;-79
2022/06/28 03:21:00;;;;;;;0.90;0.90;;;;;;;15.65;74.12;99434.34;5132767;27;42801;-79
2022/06/28 03:23:28;;;;;;;0.83;0.83;;;;;;;15.60;73.91;99435.66;5114339;27;42821;-79
2022/06/28 03:25:55;;;;;;;2.27;0.90;;;;;;;15.58;74.12;99437.59;5114615;27;40912;-79
2022/06/28 03:28:23;;;;;;;1.10;1.00;;;;;;;15.53;73.67;99432.56;5098973;27;41128;-79
2022/06/28 03:30:51;;;;;;;1.03;1.00;;;;;;;15.50;73.69;99451.47;5117844;27;42856;-79
2022/06/28 03:33:20;;;;;;;2.30;1.10;;;;;;;15.49;73.67;99451.56;5100630;27;41503;-79
2022/06/28 03:35:48;;;;;;;1.33;1.23;;;;;;;15.45;73.66;99451.78;5117630;27;40284;-80
2022/06/28 03:38:16;;;;;;;0.77;0.77;;;;;;;15.44;73.99;99452.78;5100652;27;42488;-79
2022/06/28 03:41:22;;;;;;;0.80;0.80;;;;;;;15.41;74.00;99453.00;5079064;27;42504;-79
2022/06/28 03:43:53;;;;;;;1.00;0.90;;;;;;;15.40;74.26;99461.09;5117909;27;42710;-78
2022/06/28 03:46:21;;;;;;;0.90;0.90;;;;;;;15.37;74.22;99462.19;5100345;27;40675;-78
2022/06/28 03:49:02;;;;;;;1.30;1.20;;;;;;;15.40;73.88;99467.31;5114338;27;41571;-79
2022/06/28 03:51:44;;;;;;;1.40;1.30;;;;;;;15.43;74.00;99469.75;5117977;27;42025;-79
2022/06/28 03:54:25;;;;;;;0.87;0.87;;;;;;;15.47;73.81;99467.69;5132584;27;42265;-79
2022/06/28 03:57:05;;;;;;;1.53;0.97;;;;;;;15.53;74.23;99469.06;5114755;27;39942;-79
2022/06/28 03:59:35;;;;;;;1.27;0.90;;;;;;;15.58;74.63;99472.31;5100560;27;40636;-79
2022/06/28 04:02:04;;;;;;;1.47;1.00;;;;;;;15.64;74.08;99469.19;5117276;27;41889;-79
2022/06/28 04:04:33;;;;;;;1.40;1.30;;;;;;;15.73;74.41;99484.50;5117119;27;42945;-79
2022/06/28 04:07:00;;;;;;;2.10;0.90;;;;;;;15.79;74.67;99476.91;5100267;27;39135;-79
2022/06/28 04:09:29;;;;;;;1.60;1.50;;;;;;;15.85;74.33;99478.25;5099897;27;40544;-79
2022/06/28 04:11:58;;;;;;;1.30;1.07;;;;;;;15.93;74.18;99470.56;5116821;27;42748;-79
2022/06/28 04:14:26;;;;;;;1.00;1.00;;;;;;;16.00;74.07;99466.44;5116660;27;43140;-79
2022/06/28 04:16:54;;;;;;;1.30;1.20;;;;;;;16.06;73.69;99470.47;5117158;27;40928;-79
2022/06/28 04:19:30;;;;;;;1.20;1.10;;;;;;;16.12;73.67;99468.19;5116950;27;42098;-79
2022/06/28 04:22:00;;;;;;;2.20;1.00;;;;;;;16.20;73.89;99467.59;5100167;27;42760;-79
2022/06/28 04:24:28;;;;;;;1.30;0.90;;;;;;;16.28;73.52;99464.38;5099529;27;41423;-80
2022/06/28 04:27:06;;;;;;;1.37;1.27;;;;;;;16.36;73.55;99456.59;5099985;27;39298;-79
2022/06/28 04:29:35;;;;;;;1.77;1.10;;;;;;;16.32;73.35;99439.94;5099883;27;40745;-80
2022/06/28 04:32:05;;;;;;;0.97;0.90;;;;;;;16.40;73.64;99456.25;5116685;27;43562;-79
2022/06/28 04:34:34;;;;;;;2.17;1.10;;;;;;;16.55;73.17;99467.59;5099564;27;41249;-79
2022/06/28 04:37:04;;;;;;;1.27;1.17;;;;;;;16.60;73.22;99460.06;5117047;27;40002;-79
2022/06/28 04:39:31;;;;;;;1.30;1.20;;;;;;;16.62;73.25;99451.91;5115731;27;41831;-79
2022/06/28 04:42:13;;;;;;;1.27;1.17;;;;;;;16.77;73.12;99462.31;5099539;27;43260;-79
2022/06/28 04:44:41;;;;;;;1.90;1.30;;;;;;;16.83;72.93;99456.47;5099425;27;41312;-79
2022/06/28 04:47:12;;;;;;;1.27;1.17;;;;;;;16.91;73.03;99453.19;5113994;27;40439;-79
2022/06/28 04:49:42;;;;;;;1.30;1.20;;;;;;;16.99;72.55;99455.25;5099899;27;40697;-79
2022/06/28 04:52:12;;;;;;;1.20;1.10;;;;;;;17.04;72.61;99453.09;5116552;27;43640;-79
2022/06/28 04:54:45;;;;;;;1.23;1.13;;;;;;;17.10;72.25;99457.94;5113794;27;43472;-80
2022/06/28 04:57:30;;;;;;;1.27;1.10;;;;;;;17.16;72.26;99452.09;5113488;27;40075;-78
2022/06/28 05:00:10;;;;;;;1.40;1.30;;;;;;;17.26;71.77;99463.78;5114736;27;41798;-79
2022/06/28 05:02:42;;;;;;;2.93;1.20;;;;;;;17.34;71.54;99461.31;5099209;27;42142;-78
2022/06/28 05:05:32;;;;;;;0.80;0.80;;;;;;;17.42;71.27;99458.03;5098945;27;41193;-79
2022/06/28 05:08:02;;;;;;;1.90;1.20;;;;;;;17.49;71.13;99462.75;5099492;27;39939;-79
2022/06/28 05:10:38;;;;;;;1.10;1.10;;;;;;;17.59;70.93;99471.75;5099034;27;41579;-79
2022/06/28 05:13:21;;;;;;;1.40;1.30;;;;;;;17.57;70.23;99452.25;5098596;27;44675;-79
2022/06/28 05:15:49;;;;;;;1.37;1.00;;;;;;;17.75;70.29;99465.16;5098692;27;41124;-79
2022/06/28 05:18:18;;;;;;;1.30;1.20;;;;;;;17.82;69.69;99466.34;5098756;27;38974;-80
2022/06/28 05:20:45;;;;;;;1.40;1.30;;;;;;;17.68;69.29;99426.47;5098660;27;40722;-79
2022/06/28 05:23:15;;;;;;;1.33;1.20;;;;;;;17.96;68.57;99463.38;5098945;27;42989;-79
2022/06/28 05:26:03;;;;;;;1.30;1.20;;;;;;;18.06;68.74;99452.72;5064493;27;41938;-79
2022/06/28 05:28:32;;;;;;;1.03;0.93;;;;;;;18.03;67.91;99435.09;5098704;27;38813;-80
2022/06/28 05:30:59;;;;;;;0.97;0.97;;;;;;;18.20;67.95;99444.38;5098357;27;42027;-79
2022/06/28 05:33:27;;;;;;;1.80;1.03;;;;;;;18.17;67.69;99428.59;5133819;27;43700;-78
2022/06/28 05:35:55;;;;;;;1.07;0.97;;;;;;;18.31;67.58;99447.84;5098292;27;41096;-79
2022/06/28 05:38:24;;;;;;;1.37;1.27;;;;;;;18.41;67.09;99455.16;5099028;27;39869;-80
2022/06/28 05:40:52;;;;;;;1.00;1.00;;;;;;;18.49;66.65;99449.97;5115129;27;42687;-80
2022/06/28 05:43:19;;;;;;;1.10;1.00;;;;;;;18.56;66.65;99448.44;5115582;27;43819;-79
2022/06/28 05:45:47;;;;;;;1.00;1.00;;;;;;;18.63;66.16;99441.63;5115519;27;43187;-79
2022/06/28 05:48:15;;;;;;;1.93;1.13;;;;;;;18.69;65.82;99441.06;5115787;27;40019;-79
2022/06/28 05:50:43;;;;;;;1.33;1.03;;;;;;;18.85;65.43;99460.22;5115743;27;42948;-80
2022/06/28 05:53:11;;;;;;;1.33;1.10;;;;;;;18.94;64.79;99462.09;5097734;27;44562;-80
2022/06/28 05:55:41;;;;;;;1.30;1.20;;;;;;;19.15;64.70;99453.19;5098292;27;41159;-78
2022/06/28 05:58:09;;;;;;;0.97;0.90;;;;;;;19.51;62.88;99460.66;5098563;27;40873;-79
2022/06/28 06:00:39;;;;;;;1.00;1.00;;;;;;;19.68;63.10;99473.41;5115320;27;42145;-77
2022/06/28 06:03:07;;;;;;;1.20;1.10;;;;;;;19.70;62.70;99471.44;5115114;27;42730;-77
2022/06/28 06:05:35;;;;;;;1.47;0.97;;;;;;;19.75;62.13;99478.25;5097452;27;42285;-76
2022/06/28 06:08:03;;;;;;;1.33;1.10;;;;;;;19.66;62.03;99470.00;5097985;27;38840;-76
2022/06/28 06:10:32;;;;;;;1.47;0.80;;;;;;;19.77;61.92;99481.66;5115016;27;41816;-76
2022/06/28 06:13:02;;;;;;;0.70;0.70;;;;;;;19.82;62.25;99474.00;5097538;27;41672;-76
2022/06/28 06:15:30;;;;;;;0.77;0.70;;;;;;;19.91;62.06;99478.53;5114731;27;43926;-77
2022/06/28 06:17:58;;;;;;;1.07;0.87;;;;;;;19.98;62.18;99479.69;5097917;27;39170;-76
2022/06/28 06:20:26;;;;;;;1.63;1.07;;;;;;;19.97;60.11;99478.00;5097297;27;41742;-77
2022/06/28 06:22:54;;;;;;;0.87;0.87;;;;;;;20.14;60.59;99496.13;5097886;27;42768;-77
2022/06/28 06:26:00;;;;;;;1.33;0.83;;;;;;;20.24;59.38;99493.44;5114046;27;42889;-77
2022/06/28 06:28:30;;;;;;;0.70;0.70;;;;;;;20.31;59.19;99481.97;5114671;27;40644;-76
2022/06/28 06:30:58;;;;;;;0.80;0.80;;;;;;;20.39;58.55;99484.84;5097717;27;40620;-76
2022/06/28 06:33:58;;;;;;;1.00;1.00;;;;;;;20.48;58.26;99493.88;5058652;27;41823;-77
2022/06/28 06:36:36;;;;;;;0.97;0.90;;;;;;;20.62;58.28;99493.44;5097223;27;44280;-77
2022/06/28 06:39:05;;;;;;;0.70;0.70;;;;;;;20.75;58.12;99485.06;5114801;27;40806;-76
2022/06/28 06:41:33;;;;;;;0.90;0.90;;;;;;;20.92;57.32;99478.91;5114069;27;41726;-77
2022/06/28 06:44:03;;;;;;;1.27;0.83;;;;;;;21.19;57.18;99482.69;5097681;27;41868;-76
2022/06/28 06:46:36;;;;;;;1.60;0.80;;;;;;;21.41;56.35;99482.28;5114195;27;42357;-77
2022/06/28 06:49:04;;;;;;;1.50;0.73;;;;;;;21.65;56.01;99473.66;5114511;27;40860;-77
2022/06/28 06:51:32;;;;;;;0.97;0.93;;;;;;;21.84;54.63;99482.50;5114534;27;42486;-77
2022/06/28 06:53:59;;;;;;;1.13;0.80;;;;;;;21.98;54.19;99480.25;5114261;27;42725;-77
2022/06/28 06:56:27;;;;;;;1.43;0.70;;;;;;;22.02;53.31;99473.56;5132292;27;42237;-77
2022/06/28 06:58:55;;;;;;;3.30;0.93;;;;;;;22.13;53.34;99490.38;5114651;27;39906;-75
2022/06/28 07:01:28;;;;;;;0.70;0.70;;;;;;;22.15;53.57;99476.75;5095302;27;40769;-77
2022/06/28 07:03:57;;;;;;;0.67;0.67;;;;;;;22.27;53.34;99489.00;5099056;27;41803;-77
2022/06/28 07:06:25;;;;;;;0.70;0.70;;;;;;;22.48;52.63;99497.63;5099326;27;44204;-77
2022/06/28 07:08:53;;;;;;;2.40;0.70;;;;;;;23.03;51.14;99499.22;5116453;27;41378;-78
2022/06/28 07:11:23;;;;;;;0.73;0.73;;;;;;;23.38;50.16;99496.38;5099187;27;41624;-76
2022/06/28 07:13:51;;;;;;;0.90;0.80;;;;;;;23.60;48.63;99503.13;5095956;27;44041;-76
2022/06/28 07:16:19;;;;;;;0.70;0.70;;;;;;;23.61;48.20;99511.03;5099321;27;41625;-76
2022/06/28 07:18:48;;;;;;;0.67;0.67;;;;;;;23.57;47.99;99504.28;5099796;27;40543;-76
2022/06/28 07:21:16;;;;;;;0.60;0.60;;;;;;;23.53;48.39;99496.66;5099264;27;42447;-76
2022/06/28 07:23:43;;;;;;;0.80;0.80;;;;;;;23.46;48.33;99479.38;5116084;27;42701;-77
2022/06/28 07:26:12;;;;;;;1.47;0.50;;;;;;;23.59;47.18;99502.28;5099154;27;41193;-75
2022/06/28 07:28:40;;;;;;;0.60;0.50;;;;;;;23.71;46.73;99508.22;5116471;27;40200;-76
2022/06/28 07:31:08;;;;;;;0.67;0.60;;;;;;;24.02;47.15;99504.91;5098227;27;40409;-77
2022/06/28 07:33:35;;;;;;;0.50;0.50;;;;;;;24.63;45.42;99521.59;5116409;27;43680;-77
2022/06/28 07:36:05;;;;;;;0.70;0.53;;;;;;;25.76;43.47;99533.28;5116073;27;42381;-76
2022/06/28 07:38:33;;;;;;;2.37;0.70;;;;;;;26.78;40.97;99552.00;5098751;27;39784;-77
2022/06/28 07:41:24;;;;;;;0.53;0.53;;;;;;;27.91;39.66;99554.63;5083928;27;42910;-77
2022/06/28 07:43:55;;;;;;;1.23;0.80;;;;;;;29.13;36.59;99566.41;5117754;27;43167;-77
2022/06/28 07:46:25;;;;;;;0.60;0.60;;;;;;;30.43;34.53;99564.63;5099865;27;43485;-77
2022/06/28 07:48:53;;;;;;;0.50;0.50;;;;;;;31.87;32.11;99595.00;5100059;27;40021;-77
2022/06/28 07:54:10;;;;;;;0.50;0.50;;;;;;;32.00;29.22;99590.34;5113803;27;42822;-77
2022/06/28 07:56:45;;;;;;;0.70;0.70;;;;;;;31.51;30.77;99571.69;5099829;27;42714;-77
2022/06/28 07:59:13;;;;;;;1.37;0.50;;;;;;;31.39;29.53;99587.91;5117120;27;40993;-77
2022/06/28 08:01:41;;;;;;;0.70;0.70;;;;;;;31.66;30.14;99568.72;5116588;27;41769;-77
2022/06/28 08:04:17;;;;;;;0.70;0.70;;;;;;;33.02;27.92;99589.34;5099683;27;43072;-76
2022/06/28 08:06:47;;;;;;;0.87;0.70;;;;;;;34.81;24.43;99604.78;5099538;27;42235;-78
2022/06/28 08:09:14;;;;;;;0.87;0.77;;;;;;;36.25;24.15;99589.50;5116913;27;40767;-77
2022/06/28 08:11:42;;;;;;;0.63;0.60;;;;;;;37.73;22.23;99604.88;5116608;27;43001;-77
2022/06/28 08:14:12;;;;;;;1.33;0.70;;;;;;;39.24;20.95;99607.78;5098621;27;43416;-78
2022/06/28 08:16:41;;;;;;;0.60;0.60;;;;;;;40.11;18.96;99618.41;5099244;27;43173;-78
2022/06/28 08:19:11;;;;;;;0.85;0.70;;;;;;;41.02;19.22;99622.59;5099366;27;40472;-78
2022/06/28 08:21:43;;;;;;;0.50;0.50;;;;;;;41.80;17.18;99620.34;5099476;27;41709;-78
2022/06/28 08:24:12;;;;;;;0.45;0.45;;;;;;;42.37;17.23;99619.09;5099250;27;42787;-78
2022/06/28 08:26:43;;;;;;;0.65;0.60;;;;;;;42.78;17.49;99612.19;5099427;27;42168;-78
2022/06/28 08:29:11;;;;;;;0.65;0.50;;;;;;;42.92;16.46;99621.59;5116391;27;40908;-79
2022/06/28 08:31:39;;;;;;;0.60;0.60;;;;;;;42.74;16.22;99601.91;5116413;27;41782;-78
2022/06/28 08:34:07;;;;;;;0.57;0.40;;;;;;;42.49;16.06;99602.91;5099251;27;41684;-78
2022/06/28 08:36:35;;;;;;;0.45;0.45;;;;;;;41.81;16.65;99603.38;5134788;27;43248;-78
2022/06/28 08:39:04;;;;;;;0.52;0.50;;;;;;;41.62;16.97;99591.22;5099210;27;40061;-79
2022/06/28 08:41:36;;;;;;;0.80;0.80;;;;;;;41.73;17.30;99565.03;5115691;27;41691;-78
2022/06/28 08:44:04;;;;;;;0.80;0.57;;;;;;;42.12;16.96;99554.06;5134451;27;42115;-78
2022/06/28 08:46:35;;;;;;;0.45;0.45;;;;;;;42.71;15.54;99566.25;5115951;27;43254;-78
2022/06/28 08:49:05;;;;;;;0.55;0.45;;;;;;;43.16;15.26;99571.47;5131566;27;40215;-78
2022/06/28 08:51:33;;;;;;;2.50;0.50;;;;;;;43.41;14.41;99576.03;5115535;27;41641;-78
2022/06/28 08:54:02;;;;;;;0.65;0.60;;;;;;;43.62;14.28;99573.91;5116044;27;41832;-78
2022/06/28 08:56:30;;;;;;;0.50;0.50;;;;;;;43.63;14.19;99542.91;5115736;27;42012;-78
2022/06/28 08:59:02;;;;;;;0.90;0.80;;;;;;;43.65;14.58;99554.59;5116633;27;40938;-77
2022/06/28 09:01:30;;;;;;;0.50;0.50;;;;;;;42.68;15.83;99539.78;5115783;27;40716;-78
2022/06/28 09:04:00;;;;;;;1.00;0.70;;;;;;;41.75;15.89;99539.69;5098673;27;42759;-78
2022/06/28 09:06:28;;;;;;;0.73;0.50;;;;;;;41.44;16.11;99542.53;5115433;27;43035;-78
2022/06/28 09:09:02;;;;;;;1.05;0.60;;;;;;;41.18;15.61;99547.28;5115542;27;40157;-77
2022/06/28 09:11:37;;;;;;;0.50;0.50;;;;;;;40.91;16.16;99530.06;5098812;27;42110;-78
2022/06/28 09:14:21;;;;;;;0.73;0.63;;;;;;;41.08;16.45;99526.97;5115805;27;41693;-78
2022/06/28 09:16:51;;;;;;;0.95;0.50;;;;;;;41.21;16.23;99527.28;5113057;27;42369;-78
2022/06/28 09:19:34;;;;;;;1.33;0.63;;;;;;;40.41;16.51;99536.38;5133941;27;41876;-77
2022/06/28 09:22:03;;;;;;;0.73;0.60;;;;;;;38.83;17.73;99523.47;5112810;27;42298;-77
2022/06/28 09:24:31;;;;;;;0.57;0.50;;;;;;;37.71;18.36;99532.44;5115055;27;43221;-78
2022/06/28 09:27:02;;;;;;;0.60;0.60;;;;;;;38.61;18.76;99519.94;5115342;27;41080;-78
2022/06/28 09:29:31;;;;;;;0.70;0.70;;;;;;;39.99;16.57;99537.31;5098316;27;39278;-78
2022/06/28 09:31:59;;;;;;;1.15;0.60;;;;;;;40.73;15.93;99542.56;5114717;27;40601;-78
2022/06/28 09:34:26;;;;;;;1.05;0.70;;;;;;;41.27;15.86;99542.03;5098018;27;42834;-78
2022/06/28 09:36:56;;;;;;;0.63;0.63;;;;;;;41.07;16.35;99540.03;5115604;27;43231;-78
2022/06/28 09:39:29;;;;;;;0.70;0.70;;;;;;;40.46;16.87;99519.72;5115403;27;39254;-78
2022/06/28 09:41:59;;;;;;;1.05;0.60;;;;;;;40.76;17.24;99525.34;5098040;27;40561;-78
2022/06/28 09:44:29;;;;;;;0.90;0.60;;;;;;;41.53;15.53;99534.47;5098127;27;42817;-79
2022/06/28 09:46:59;;;;;;;1.27;0.80;;;;;;;42.67;14.56;99540.91;5098284;27;41561;-78
2022/06/28 09:49:29;;;;;;;0.70;0.60;;;;;;;43.75;13.40;99536.09;5133379;27;39921;-78
2022/06/28 09:51:58;;;;;;;1.30;0.70;;;;;;;44.63;13.24;99524.31;5133514;27;41546;-78
2022/06/28 09:54:33;;;;;;;1.13;0.70;;;;;;;45.57;12.90;99524.91;5112961;27;42802;-78
2022/06/28 09:57:02;;;;;;;0.70;0.60;;;;;;;46.21;12.60;99519.41;5097820;27;41259;-78
2022/06/28 09:59:33;;;;;;;0.40;0.40;;;;;;;46.61;12.24;99528.84;5130292;27;39698;-77
2022/06/28 10:02:03;;;;;;;0.98;0.57;;;;;;;46.58;12.72;99509.88;5115026;27;41810;-77
2022/06/28 10:04:34;;;;;;;0.63;0.50;;;;;;;46.02;12.79;99519.53;5130429;27;42689;-78
2022/06/28 10:07:02;;;;;;;1.75;0.65;;;;;;;45.10;13.23;99507.28;5114917;27;42255;-78
2022/06/28 10:09:30;;;;;;;0.80;0.50;;;;;;;44.34;12.84;99505.69;5097704;27;39727;-78
2022/06/28 10:17:44;;;;;;;0.87;0.77;;;;;;;40.50;15.52;99470.84;5114112;27;41490;-78
2022/06/28 10:20:17;;;;;;;0.75;0.70;;;;;;;39.37;16.03;99474.28;5131260;27;40011;-77
2022/06/28 10:22:45;;;;;;;2.17;0.85;;;;;;;38.60;15.94;99494.19;5114766;27;41649;-77
2022/06/28 10:25:18;;;;;;;0.67;0.60;;;;;;;38.16;16.04;99485.16;5097409;27;42081;-78
2022/06/28 10:27:49;;;;;;;0.50;0.50;;;;;;;37.87;16.63;99475.38;5111702;27;42262;-77
2022/06/28 10:30:28;;;;;;;1.50;0.67;;;;;;;37.40;17.22;99459.28;5133080;27;39973;-78
2022/06/28 10:33:04;;;;;;;1.73;0.97;;;;;;;36.81;16.42;99461.69;5097246;27;42218;-77
2022/06/28 10:36:12;;;;;;;1.23;0.77;;;;;;;36.11;17.69;99441.91;5131009;27;42839;-77
2022/06/28 10:39:16;;;;;;;0.50;0.50;;;;;;;35.97;18.52;99430.38;5129282;27;43152;-77
2022/06/28 10:41:46;;;;;;;0.90;0.87;;;;;;;35.92;18.45;99444.03;5096683;27;39126;-77
2022/06/28 10:44:17;;;;;;;0.80;0.70;;;;;;;35.82;17.75;99446.59;5114332;27;41938;-77
2022/06/28 10:46:51;;;;;;;1.37;0.53;;;;;;;35.77;19.54;99433.53;5097348;27;41695;-77
2022/06/28 10:49:21;;;;;;;0.40;0.40;;;;;;;35.47;17.82;99454.94;5114481;27;42724;-77
2022/06/28 10:52:15;;;;;;;0.50;0.50;;;;;;;35.08;18.34;99451.00;5097542;27;38802;-77
2022/06/28 10:55:19;;;;;;;0.60;0.60;;;;;;;34.74;18.20;99447.16;5112586;27;41700;-78
2022/06/28 10:57:47;;;;;;;0.60;0.60;;;;;;;34.50;19.63;99427.84;5129582;27;43791;-78
2022/06/28 11:00:23;;;;;;;0.97;0.60;;;;;;;34.40;19.95;99426.75;5113810;27;41687;-78
2022/06/28 11:03:01;;;;;;;0.60;0.60;;;;;;;34.29;20.47;99409.16;5111191;27;40830;-77
2022/06/28 11:05:54;;;;;;;1.40;0.90;;;;;;;34.25;21.27;99396.91;5097290;27;40827;-77
2022/06/28 11:08:54;;;;;;;1.23;0.70;;;;;;;34.25;20.90;99396.91;5111507;27;43687;-78
2022/06/28 11:11:25;;;;;;;0.43;0.43;;;;;;;34.19;21.38;99392.38;5097080;27;40934;-77
2022/06/28 11:14:36;;;;;;;1.63;0.90;;;;;;;33.97;20.33;99402.22;5114424;27;39940;-77
2022/06/28 11:17:15;;;;;;;0.60;0.60;;;;;;;33.91;21.30;99389.41;5050264;27;40940;-78
2022/06/28 11:19:52;;;;;;;2.47;1.10;;;;;;;33.83;23.01;99372.19;5113788;27;41809;-78
2022/06/28 11:22:27;;;;;;;1.33;0.80;;;;;;;33.73;21.55;99371.88;5097550;27;42306;-78
2022/06/28 11:24:58;;;;;;;1.17;0.80;;;;;;;33.70;20.13;99399.81;5113914;27;38678;-77
2022/06/28 11:27:25;;;;;;;1.63;0.90;;;;;;;33.67;21.43;99380.22;5113724;27;40701;-77
2022/06/28 11:29:55;;;;;;;0.70;0.70;;;;;;;33.65;20.89;99385.09;5132035;27;42610;-77
2022/06/28 11:32:26;;;;;;;1.67;0.77;;;;;;;33.61;20.67;99375.66;5132308;27;41727;-77
2022/06/28 11:34:56;;;;;;;1.37;0.70;;;;;;;33.75;21.67;99367.03;5096326;27;38810;-78
2022/06/28 11:37:25;;;;;;;1.23;1.00;;;;;;;33.98;20.62;99373.69;5132110;27;41508;-78
2022/06/28 11:39:59;;;;;;;0.63;0.60;;;;;;;34.09;21.18;99367.38;5113002;27;42751;-78
2022/06/28 11:42:27;;;;;;;0.70;0.50;;;;;;;34.28;22.26;99351.63;5113101;27;42806;-79
2022/06/28 11:44:56;;;;;;;0.73;0.60;;;;;;;34.57;21.34;99351.53;5131815;27;40984;-78
2022/06/28 11:47:25;;;;;;;0.83;0.83;;;;;;;34.98;20.61;99349.75;5096335;27;40751;-78
2022/06/28 11:50:10;;;;;;;0.60;0.60;;;;;;;35.19;19.33;99359.28;5132245;27;42774;-78
2022/06/28 11:52:50;;;;;;;0.83;0.70;;;;;;;35.45;19.38;99357.91;5131900;27;42485;-78
2022/06/28 11:55:37;;;;;;;0.90;0.77;;;;;;;36.30;20.59;99342.16;5133106;27;41808;-79
2022/06/28 11:58:17;;;;;;;0.70;0.60;;;;;;;36.87;18.53;99343.88;5132143;27;41717;-79
2022/06/28 12:01:06;;;;;;;0.73;0.73;;;;;;;37.12;19.35;99344.22;5135069;27;42533;-78
2022/06/28 12:03:36;;;;;;;1.27;0.80;;;;;;;37.33;19.13;99328.78;5116653;27;43205;-79
2022/06/28 12:06:06;;;;;;;1.43;0.80;;;;;;;37.85;18.38;99331.81;5116072;27;40064;-79
2022/06/28 12:08:47;;;;;;;1.73;0.70;;;;;;;38.15;17.51;99333.25;5116501;27;40848;-77
2022/06/28 12:11:30;;;;;;;2.17;0.80;;;;;;;38.98;16.15;99353.81;5099184;27;41613;-79
2022/06/28 12:13:59;;;;;;;0.70;0.70;;;;;;;40.13;15.81;99348.94;5135299;27;42522;-78